»·PEaware :: N12181 KLAX-KSNA

N12181 :: KLAX-KSNA

FLIGHT INFORMATION

Flight Status: Arrived
Operator: Privately registered:
United States
More flights under this callsign
Pilot: Kelly W. (14170)
Aircraft: CESSNA 172 SKYHAWK
(C172)
More flights by this aircraft type
Origin: KLAX Los Angeles Intl
United States
Destination: KSNA John Wayne-Orange Co
United States
More flights between these airports :: More routes between these airports
Route: +SLI8 SLI
File this flight plan on PilotEdge
Remarks: IFR KLAX to KSNA
Altitude:
(Current/Filed)
4,000ft
Speed:
(Current/Filed)
105kts
Departed: 07-Oct-18 06:51 PM
Arrived: 07-Oct-18 07:33 PM
Distance/Time
Traveled:
31nm/0:42
Distance/Time
To Go:
Arrived

Flight Plot

Page will automatically refresh every two minutes.

Flight plan parsing failed; only flown route is shown


Map Options




Map Legend


Flown Route
Filed Route
Departure Airport
Arrival Airport
Navaid (VOR, NDB)
Fix

Horizontal Profiles

Position Reports

Time Latitude Longitude Heading Altitude Ground
Speed
07-Oct-18 18:40 33.941159 -118.397891 221 109ft 0kts
07-Oct-18 18:41 33.941132 -118.397920 220 109ft 0kts
07-Oct-18 18:42 33.941132 -118.397920 220 109ft 0kts
07-Oct-18 18:43 33.941132 -118.397920 220 109ft 0kts
07-Oct-18 18:44 33.941121 -118.397931 218 109ft 0kts
07-Oct-18 18:45 33.941045 -118.398000 213 109ft 0kts
07-Oct-18 18:46 33.941006 -118.398030 211 109ft 0kts
07-Oct-18 18:47 33.940496 -118.398191 183 109ft 15kts
07-Oct-18 18:48 33.938698 -118.400785 261 114ft 25kts
07-Oct-18 18:49 33.939291 -118.395116 81 106ft 32kts
07-Oct-18 18:50 33.940273 -118.385385 83 99ft 24kts
07-Oct-18 18:51 33.940069 -118.383279 170 96ft 0kts
07-Oct-18 18:52 33.940069 -118.383279 170 96ft 0kts
07-Oct-18 18:53 33.938343 -118.397962 261 531ft 83kts
07-Oct-18 18:54 33.936691 -118.425464 265 1658ft 85kts
07-Oct-18 18:55 33.928718 -118.450909 227 2718ft 86kts
07-Oct-18 18:56 33.909308 -118.467208 177 3716ft 83kts
07-Oct-18 18:57 33.882106 -118.465210 174 4013ft 105kts
07-Oct-18 18:58 33.854175 -118.457310 145 4077ft 108kts
07-Oct-18 18:59 33.828437 -118.436957 146 4050ft 111kts
07-Oct-18 19:00 33.802265 -118.415617 149 3977ft 111kts
07-Oct-18 19:01 33.776488 -118.395538 144 3958ft 113kts
07-Oct-18 19:02 33.750491 -118.375763 147 3998ft 109kts
07-Oct-18 19:03 33.723512 -118.354014 150 4135ft 119kts
07-Oct-18 19:04 33.692472 -118.333539 148 4007ft 126kts
07-Oct-18 19:05 33.664544 -118.307732 139 3954ft 126kts
07-Oct-18 19:06 33.656848 -118.270302 84 3919ft 129kts
07-Oct-18 19:07 33.658690 -118.228602 89 4016ft 123kts
07-Oct-18 19:08 33.659861 -118.186749 85 3987ft 126kts
07-Oct-18 19:09 33.660769 -118.144474 89 4009ft 122kts
07-Oct-18 19:10 33.661475 -118.102667 85 3993ft 126kts
07-Oct-18 19:11 33.661924 -118.061141 94 3938ft 128kts
07-Oct-18 19:12 33.676151 -118.027951 32 4045ft 121kts
07-Oct-18 19:13 33.704870 -118.006934 34 4125ft 127kts
07-Oct-18 19:14 33.733485 -117.980270 37 3959ft 128kts
07-Oct-18 19:15 33.762582 -117.955884 30 3887ft 128kts
07-Oct-18 19:16 33.793220 -117.935584 27 3946ft 123kts
07-Oct-18 19:17 33.822216 -117.913721 36 4011ft 125kts
07-Oct-18 19:18 33.849561 -117.887780 35 4035ft 125kts
07-Oct-18 19:19 33.878676 -117.864455 30 4026ft 126kts
07-Oct-18 19:20 33.907121 -117.839856 37 4026ft 126kts
07-Oct-18 19:21 33.935367 -117.814465 32 3998ft 126kts
07-Oct-18 19:22 33.964324 -117.791097 53 3961ft 128kts
07-Oct-18 19:23 33.954819 -117.754068 124 4058ft 124kts
07-Oct-18 19:24 33.933165 -117.720913 134 4020ft 127kts
07-Oct-18 19:25 33.904276 -117.725081 216 3945ft 126kts
07-Oct-18 19:26 33.875453 -117.743137 195 3868ft 112kts
07-Oct-18 19:27 33.850908 -117.759579 211 3691ft 99kts
07-Oct-18 19:28 33.824695 -117.776334 204 3411ft 115kts
07-Oct-18 19:29 33.795964 -117.794914 209 2581ft 114kts
07-Oct-18 19:30 33.768117 -117.811264 205 1939ft 108kts
07-Oct-18 19:31 33.741468 -117.827148 209 1396ft 105kts
07-Oct-18 19:32 33.716722 -117.843363 207 830ft 90kts
07-Oct-18 19:33 33.695838 -117.856059 206 445ft 65kts
07-Oct-18 19:34 33.681085 -117.865354 206 84ft 53kts
07-Oct-18 19:35 33.678307 -117.868486 304 60ft 0kts
07-Oct-18 19:36 33.678351 -117.869265 258 60ft 0kts

Navigation Log

Ident Type
Flight plan parsing failed, navigation log unavailable